createdAt,value
2016-11-21T00:00:15.918Z,992.63
2016-11-21T00:01:15.905Z,992.66
2016-11-21T00:02:15.889Z,992.67
2016-11-21T00:03:15.875Z,992.66
2016-11-21T00:04:15.860Z,992.66
2016-11-21T00:05:15.844Z,992.7
2016-11-21T00:06:15.830Z,992.67
2016-11-21T00:07:15.837Z,992.67
2016-11-21T00:08:15.802Z,992.66
2016-11-21T00:09:15.787Z,992.7
2016-11-21T00:10:15.773Z,992.7
2016-11-21T00:11:15.759Z,992.74
2016-11-21T00:12:15.745Z,992.76
2016-11-21T00:13:15.729Z,992.74
2016-11-21T00:14:15.715Z,992.74
2016-11-21T00:15:15.701Z,992.74
2016-11-21T00:16:15.690Z,992.73
2016-11-21T00:17:15.673Z,992.78
2016-11-21T00:18:15.659Z,992.7
2016-11-21T00:19:15.643Z,992.65
2016-11-21T00:20:15.628Z,992.62
2016-11-21T00:21:15.614Z,992.62
2016-11-21T00:22:15.599Z,992.59
2016-11-21T00:23:15.583Z,992.6
2016-11-21T00:24:15.572Z,992.61
2016-11-21T00:25:15.556Z,992.58
2016-11-21T00:26:15.542Z,992.52
2016-11-21T00:27:15.528Z,992.52
2016-11-21T00:28:15.513Z,992.52
2016-11-21T00:29:15.502Z,992.5
2016-11-21T00:30:15.482Z,992.48
2016-11-21T00:31:15.469Z,992.56
2016-11-21T00:32:15.456Z,992.52
2016-11-21T00:33:15.440Z,992.53
2016-11-21T00:34:15.424Z,992.47
2016-11-21T00:35:15.411Z,992.46
2016-11-21T00:36:15.397Z,992.44
2016-11-21T00:37:15.382Z,992.45
2016-11-21T00:38:15.365Z,992.46
2016-11-21T00:39:15.352Z,992.47
2016-11-21T00:40:15.336Z,992.49
2016-11-21T00:41:15.326Z,992.49
2016-11-21T00:42:15.308Z,992.49
2016-11-21T00:43:15.294Z,992.52
2016-11-21T00:44:15.278Z,992.5
2016-11-21T00:45:15.263Z,992.58
2016-11-21T00:46:15.250Z,992.55
2016-11-21T00:47:15.233Z,992.54
2016-11-21T00:48:15.219Z,992.56
2016-11-21T00:49:15.202Z,992.57
2016-11-21T00:50:15.189Z,992.58
2016-11-21T00:51:15.174Z,992.58
2016-11-21T00:52:15.160Z,992.59
2016-11-21T00:53:15.144Z,992.62
2016-11-21T00:54:15.130Z,992.54
2016-11-21T00:55:15.114Z,992.58
2016-11-21T00:56:15.099Z,992.55
2016-11-21T00:57:15.084Z,992.52
2016-11-21T00:58:15.069Z,992.51
2016-11-21T00:59:15.056Z,992.52
2016-11-21T01:00:15.039Z,992.53
2016-11-21T01:01:15.024Z,992.54
2016-11-21T01:02:15.011Z,992.56
2016-11-21T01:03:14.995Z,992.5
2016-11-21T01:04:14.980Z,992.53
2016-11-21T01:05:14.963Z,992.51
2016-11-21T01:06:14.950Z,992.55
2016-11-21T01:07:14.933Z,992.53
2016-11-21T01:08:14.920Z,992.52
2016-11-21T01:09:14.906Z,992.49
2016-11-21T01:10:14.891Z,992.5
2016-11-21T01:11:14.875Z,992.5
2016-11-21T01:12:14.860Z,992.51
2016-11-21T01:13:14.845Z,992.5
2016-11-21T01:14:14.831Z,992.54
2016-11-21T01:15:14.814Z,992.54
2016-11-21T01:16:14.801Z,992.55
2016-11-21T01:17:14.786Z,992.55
2016-11-21T01:18:14.771Z,992.51
2016-11-21T01:19:14.758Z,992.49
2016-11-21T01:20:14.741Z,992.47
2016-11-21T01:21:14.727Z,992.46
2016-11-21T01:22:14.711Z,992.44
2016-11-21T01:23:14.697Z,992.49
2016-11-21T01:24:14.682Z,992.49
2016-11-21T01:25:14.668Z,992.51
2016-11-21T01:26:14.652Z,992.56
2016-11-21T01:27:14.638Z,992.57
2016-11-21T01:28:14.624Z,992.54
2016-11-21T01:29:14.607Z,992.55
2016-11-21T01:30:14.593Z,992.56
2016-11-21T01:31:14.579Z,992.57
2016-11-21T01:32:14.566Z,992.57
2016-11-21T01:33:14.548Z,992.51
2016-11-21T01:34:14.534Z,992.54
2016-11-21T01:35:14.520Z,992.59
2016-11-21T01:36:14.508Z,992.6
2016-11-21T01:37:14.493Z,992.61
2016-11-21T01:38:14.478Z,992.62
2016-11-21T01:39:14.465Z,992.59
2016-11-21T01:40:14.448Z,992.6
2016-11-21T01:41:14.433Z,992.57
2016-11-21T01:42:14.622Z,992.59
2016-11-21T01:43:14.404Z,992.62
2016-11-21T01:44:14.405Z,992.56
2016-11-21T01:45:14.376Z,992.58
2016-11-21T01:46:14.361Z,992.6
2016-11-21T01:47:14.347Z,992.6
2016-11-21T01:48:14.333Z,992.57
2016-11-21T01:49:14.321Z,992.58
2016-11-21T01:50:14.303Z,992.57
2016-11-21T01:51:14.290Z,992.55
2016-11-21T01:52:14.274Z,992.57
2016-11-21T01:53:14.262Z,992.57
2016-11-21T01:54:14.249Z,992.53
2016-11-21T01:55:14.231Z,992.54
2016-11-21T01:56:14.217Z,992.49
2016-11-21T01:57:14.204Z,992.55
2016-11-21T01:58:14.188Z,992.56
2016-11-21T01:59:14.175Z,992.5
2016-11-21T02:00:14.162Z,992.47
2016-11-21T02:01:14.198Z,992.48
2016-11-21T02:02:14.134Z,992.51
2016-11-21T02:03:14.122Z,992.49
2016-11-21T02:04:14.105Z,992.47
2016-11-21T02:05:14.093Z,992.41
2016-11-21T02:06:14.077Z,992.48
2016-11-21T02:07:14.063Z,992.5
2016-11-21T02:08:14.049Z,992.47
2016-11-21T02:09:14.034Z,992.46
2016-11-21T02:10:14.020Z,992.47
2016-11-21T02:11:14.006Z,992.48
2016-11-21T02:12:13.992Z,992.41
2016-11-21T02:13:13.979Z,992.42
2016-11-21T02:14:13.964Z,992.35
2016-11-21T02:15:13.950Z,992.4
2016-11-21T02:16:13.936Z,992.39
2016-11-21T02:17:13.921Z,992.4
2016-11-21T02:18:13.909Z,992.42
2016-11-21T02:19:13.895Z,992.45
2016-11-21T02:20:13.880Z,992.49
2016-11-21T02:21:13.866Z,992.47
2016-11-21T02:22:13.852Z,992.44
2016-11-21T02:23:13.839Z,992.44
2016-11-21T02:24:13.823Z,992.49
2016-11-21T02:25:13.810Z,992.48
2016-11-21T02:26:13.807Z,992.45
2016-11-21T02:27:13.785Z,992.47
2016-11-21T02:28:13.768Z,992.45
2016-11-21T02:29:13.757Z,992.43
2016-11-21T02:30:13.743Z,992.44
2016-11-21T02:31:13.727Z,992.5
2016-11-21T02:32:13.716Z,992.52
2016-11-21T02:33:13.702Z,992.54
2016-11-21T02:34:13.688Z,992.52
2016-11-21T02:35:13.674Z,992.51
2016-11-21T02:36:13.665Z,992.46
2016-11-21T02:37:13.649Z,992.51
2016-11-21T02:38:13.633Z,992.52
2016-11-21T02:39:13.626Z,992.49
2016-11-21T02:40:13.604Z,992.51
2016-11-21T02:41:13.593Z,992.49
2016-11-21T02:42:13.579Z,992.51
2016-11-21T02:43:13.564Z,992.52
2016-11-21T02:44:13.550Z,992.45
2016-11-21T02:45:13.537Z,992.48
2016-11-21T02:46:13.524Z,992.47
2016-11-21T02:47:13.509Z,992.48
2016-11-21T02:48:13.499Z,992.45
2016-11-21T02:49:13.483Z,992.46
2016-11-21T02:50:13.471Z,992.46
2016-11-21T02:51:13.456Z,992.48
2016-11-21T02:52:13.444Z,992.46
2016-11-21T02:53:13.428Z,992.47
2016-11-21T02:54:13.418Z,992.46
2016-11-21T02:55:13.401Z,992.45
2016-11-21T02:56:13.389Z,992.44
2016-11-21T02:57:13.375Z,992.42
2016-11-21T02:58:13.361Z,992.44
2016-11-21T02:59:13.348Z,992.46
2016-11-21T03:00:13.340Z,992.48
2016-11-21T03:01:13.323Z,992.46
2016-11-21T03:02:13.309Z,992.46
2016-11-21T03:03:13.296Z,992.43
2016-11-21T03:04:13.280Z,992.44
2016-11-21T03:05:13.266Z,992.44
2016-11-21T03:06:13.254Z,992.48
2016-11-21T03:07:13.241Z,992.48
2016-11-21T03:08:13.226Z,992.46
2016-11-21T03:09:13.214Z,992.51
2016-11-21T03:10:13.202Z,992.55
2016-11-21T03:11:13.188Z,992.48
2016-11-21T03:12:13.172Z,992.48
2016-11-21T03:13:13.160Z,992.48
2016-11-21T03:14:13.146Z,992.53
2016-11-21T03:15:13.135Z,992.55
2016-11-21T03:16:13.119Z,992.51
2016-11-21T03:17:13.107Z,992.51
2016-11-21T03:18:13.094Z,992.52
2016-11-21T03:19:13.079Z,992.54
2016-11-21T03:20:13.067Z,992.52
2016-11-21T03:21:13.056Z,992.47
2016-11-21T03:22:13.041Z,992.48
2016-11-21T03:23:13.028Z,992.5
2016-11-21T03:24:13.013Z,992.51
2016-11-21T03:25:12.999Z,992.52
2016-11-21T03:26:12.987Z,992.49
2016-11-21T03:27:12.972Z,992.53
2016-11-21T03:28:12.960Z,992.5
2016-11-21T03:29:12.946Z,992.51
2016-11-21T03:30:12.931Z,992.52
2016-11-21T03:31:12.918Z,992.54
2016-11-21T03:32:12.906Z,992.53
2016-11-21T03:33:12.892Z,992.57
2016-11-21T03:34:12.879Z,992.54
2016-11-21T03:35:12.866Z,992.45
2016-11-21T03:36:12.852Z,992.51
2016-11-21T03:37:12.839Z,992.46
2016-11-21T03:38:12.826Z,992.48
2016-11-21T03:39:12.812Z,992.44
2016-11-21T03:40:12.800Z,992.49
2016-11-21T03:41:12.786Z,992.45
2016-11-21T03:42:12.974Z,992.43
2016-11-21T03:43:12.759Z,992.41
2016-11-21T03:44:12.745Z,992.4
2016-11-21T03:45:12.731Z,992.39
2016-11-21T03:46:12.720Z,992.41
2016-11-21T03:47:12.706Z,992.43
2016-11-21T03:48:12.691Z,992.45
2016-11-21T03:49:12.679Z,992.42
2016-11-21T03:50:12.667Z,992.46
2016-11-21T03:51:12.655Z,992.45
2016-11-21T03:52:12.640Z,992.45
2016-11-21T03:53:12.628Z,992.45
2016-11-21T03:54:12.612Z,992.42
2016-11-21T03:55:12.599Z,992.42
2016-11-21T03:56:12.586Z,992.42
2016-11-21T03:57:12.572Z,992.46
2016-11-21T03:58:12.561Z,992.46
2016-11-21T03:59:12.547Z,992.42
2016-11-21T04:00:12.533Z,992.45
2016-11-21T04:01:12.520Z,992.41
2016-11-21T04:02:12.507Z,992.4
2016-11-21T04:03:12.493Z,992.41
2016-11-21T04:04:12.480Z,992.47
2016-11-21T04:05:12.465Z,992.45
2016-11-21T04:06:12.453Z,992.4
2016-11-21T04:07:12.438Z,992.42
2016-11-21T04:08:12.430Z,992.42
2016-11-21T04:09:12.413Z,992.44
2016-11-21T04:10:12.400Z,992.44
2016-11-21T04:11:12.387Z,992.5
2016-11-21T04:12:12.373Z,992.53
2016-11-21T04:13:12.360Z,992.5
2016-11-21T04:14:12.347Z,992.51
2016-11-21T04:15:12.334Z,992.55
2016-11-21T04:16:12.324Z,992.51
2016-11-21T04:17:12.359Z,992.53
2016-11-21T04:18:12.296Z,992.57
2016-11-21T04:19:12.281Z,992.57
2016-11-21T04:20:12.268Z,992.51
2016-11-21T04:21:12.255Z,992.54
2016-11-21T04:22:12.240Z,992.54
2016-11-21T04:23:12.229Z,992.53
2016-11-21T04:24:12.215Z,992.51
2016-11-21T04:25:12.203Z,992.51
2016-11-21T04:26:12.189Z,992.51
2016-11-21T04:27:12.178Z,992.53
2016-11-21T04:28:12.164Z,992.48
2016-11-21T04:29:12.151Z,992.48
2016-11-21T04:30:12.136Z,992.46
2016-11-21T04:31:12.125Z,992.49
2016-11-21T04:32:12.111Z,992.48
2016-11-21T04:33:12.098Z,992.5
2016-11-21T04:34:12.085Z,992.49
2016-11-21T04:35:12.072Z,992.47
2016-11-21T04:36:12.059Z,992.5
2016-11-21T04:37:12.047Z,992.51
2016-11-21T04:38:12.033Z,992.45
2016-11-21T04:39:12.019Z,992.46
2016-11-21T04:40:12.007Z,992.49
2016-11-21T04:41:11.995Z,992.49
2016-11-21T04:42:11.980Z,992.48
2016-11-21T04:43:11.967Z,992.43
2016-11-21T04:44:11.958Z,992.46
2016-11-21T04:45:11.943Z,992.47
2016-11-21T04:46:11.931Z,992.48
2016-11-21T04:47:11.917Z,992.5
2016-11-21T04:48:11.905Z,992.52
2016-11-21T04:49:11.891Z,992.49
2016-11-21T04:50:11.878Z,992.44
2016-11-21T04:51:11.868Z,992.42
2016-11-21T04:52:11.853Z,992.48
2016-11-21T04:53:11.840Z,992.48
2016-11-21T04:54:11.828Z,992.53
2016-11-21T04:55:11.813Z,992.41
2016-11-21T04:56:11.802Z,992.49
2016-11-21T04:57:11.789Z,992.45
2016-11-21T04:58:11.775Z,992.44
2016-11-21T04:59:11.762Z,992.42
2016-11-21T05:00:11.750Z,992.47
2016-11-21T05:01:11.737Z,992.46
2016-11-21T05:02:11.723Z,992.51
2016-11-21T05:03:11.711Z,992.46
2016-11-21T05:04:11.700Z,992.54
2016-11-21T05:05:11.686Z,992.57
2016-11-21T05:06:11.673Z,992.56
2016-11-21T05:07:11.661Z,992.55
2016-11-21T05:08:11.648Z,992.49
2016-11-21T05:09:11.635Z,992.55
2016-11-21T05:10:11.624Z,992.52
2016-11-21T05:11:11.612Z,992.52
2016-11-21T05:12:11.598Z,992.53
2016-11-21T05:13:11.587Z,992.51
2016-11-21T05:14:11.573Z,992.51
2016-11-21T05:15:11.561Z,992.51
2016-11-21T05:16:11.547Z,992.53
2016-11-21T05:17:11.537Z,992.51
2016-11-21T05:18:11.521Z,992.56
2016-11-21T05:19:11.507Z,992.54
2016-11-21T05:20:11.496Z,992.52
2016-11-21T05:21:11.481Z,992.5
2016-11-21T05:22:11.469Z,992.49
2016-11-21T05:23:11.456Z,992.51
2016-11-21T05:24:11.443Z,992.53
2016-11-21T05:25:11.431Z,992.59
2016-11-21T05:26:11.423Z,992.55
2016-11-21T05:27:11.406Z,992.58
2016-11-21T05:28:11.392Z,992.58
2016-11-21T05:29:11.379Z,992.56
2016-11-21T05:30:11.416Z,992.57
2016-11-21T05:31:11.354Z,992.58
2016-11-21T05:32:11.342Z,992.59
2016-11-21T05:33:11.330Z,992.65
2016-11-21T05:34:11.366Z,992.61
2016-11-21T05:35:11.310Z,992.65
2016-11-21T05:36:11.292Z,992.61
2016-11-21T05:37:11.278Z,992.63
2016-11-21T05:38:11.265Z,992.64
2016-11-21T05:39:11.305Z,992.65
2016-11-21T05:40:11.240Z,992.65
2016-11-21T05:41:11.227Z,992.63
2016-11-21T05:42:11.414Z,992.63
2016-11-21T05:43:11.200Z,992.66
2016-11-21T05:44:11.189Z,992.64
2016-11-21T05:45:11.175Z,992.65
2016-11-21T05:46:11.163Z,992.67
2016-11-21T05:47:11.155Z,992.65
2016-11-21T05:48:11.138Z,992.62
2016-11-21T05:49:11.126Z,992.68
2016-11-21T05:50:11.114Z,992.67
2016-11-21T05:51:11.101Z,992.64
2016-11-21T05:52:11.085Z,992.64
2016-11-21T05:53:11.074Z,992.69
2016-11-21T05:54:11.063Z,992.65
2016-11-21T05:55:11.047Z,992.58
2016-11-21T05:56:11.033Z,992.65
2016-11-21T05:57:11.021Z,992.7
2016-11-21T05:58:11.010Z,992.71
2016-11-21T05:59:10.997Z,992.72
2016-11-21T06:00:10.984Z,992.74
2016-11-21T06:01:10.971Z,992.68
2016-11-21T06:02:10.958Z,992.76
2016-11-21T06:03:10.945Z,992.75
2016-11-21T06:04:10.932Z,992.77
2016-11-21T06:05:10.920Z,992.75
2016-11-21T06:06:10.908Z,992.75
2016-11-21T06:07:10.894Z,992.79
2016-11-21T06:08:10.880Z,992.78
2016-11-21T06:09:10.869Z,992.81
2016-11-21T06:10:10.857Z,992.74
2016-11-21T06:11:10.843Z,992.75
2016-11-21T06:12:10.830Z,992.77
2016-11-21T06:13:10.818Z,992.77
2016-11-21T06:14:10.804Z,992.7
2016-11-21T06:15:10.793Z,992.74
2016-11-21T06:16:10.779Z,992.82
2016-11-21T06:17:10.767Z,992.78
2016-11-21T06:18:10.753Z,992.81
2016-11-21T06:19:10.741Z,992.75
2016-11-21T06:20:10.728Z,992.72
2016-11-21T06:21:10.716Z,992.72
2016-11-21T06:22:10.704Z,992.73
2016-11-21T06:23:10.691Z,992.71
2016-11-21T06:24:10.677Z,992.68
2016-11-21T06:25:10.669Z,992.72
2016-11-21T06:26:10.652Z,992.72
2016-11-21T06:27:10.637Z,992.71
2016-11-21T06:28:10.625Z,992.73
2016-11-21T06:29:10.612Z,992.73
2016-11-21T06:30:10.600Z,992.71
2016-11-21T06:31:10.585Z,992.74
2016-11-21T06:32:10.573Z,992.71
2016-11-21T06:33:10.562Z,992.73
2016-11-21T06:34:10.549Z,992.69
2016-11-21T06:35:10.534Z,992.69
2016-11-21T06:36:10.520Z,992.73
2016-11-21T06:37:10.508Z,992.66
2016-11-21T06:38:10.495Z,992.62
2016-11-21T06:39:10.482Z,992.65
2016-11-21T06:40:10.468Z,992.61
2016-11-21T06:41:10.457Z,992.6
2016-11-21T06:42:10.445Z,992.62
2016-11-21T06:43:10.429Z,992.56
2016-11-21T06:44:10.417Z,992.55
2016-11-21T06:45:10.404Z,992.55
2016-11-21T06:46:10.394Z,992.56
2016-11-21T06:47:10.377Z,992.61
2016-11-21T06:48:10.363Z,992.58
2016-11-21T06:49:10.353Z,992.62
2016-11-21T06:50:10.339Z,992.6
2016-11-21T06:51:10.324Z,992.6
2016-11-21T06:52:10.313Z,992.61
2016-11-21T06:53:10.299Z,992.6
2016-11-21T06:54:10.283Z,992.59
2016-11-21T06:55:10.272Z,992.63
2016-11-21T06:56:10.259Z,992.6
2016-11-21T06:57:10.245Z,992.6
2016-11-21T06:58:10.231Z,992.6
2016-11-21T06:59:10.250Z,992.61
2016-11-21T07:00:10.205Z,992.61
2016-11-21T07:01:10.193Z,992.58
2016-11-21T07:02:10.179Z,992.63
2016-11-21T07:03:10.165Z,992.62
2016-11-21T07:04:10.152Z,992.64
2016-11-21T07:05:10.141Z,992.66
2016-11-21T07:06:10.125Z,992.64
2016-11-21T07:07:10.111Z,992.66
2016-11-21T07:08:10.099Z,992.66
2016-11-21T07:09:10.084Z,992.73
2016-11-21T07:10:10.076Z,992.66
2016-11-21T07:11:10.059Z,992.71
2016-11-21T07:12:10.045Z,992.73
2016-11-21T07:13:10.033Z,992.71
2016-11-21T07:14:10.020Z,992.7
2016-11-21T07:15:10.006Z,992.74
2016-11-21T07:16:09.993Z,992.78
2016-11-21T07:17:09.977Z,992.78
2016-11-21T07:18:09.964Z,992.76
2016-11-21T07:19:09.951Z,992.81
2016-11-21T07:20:09.938Z,992.78
2016-11-21T07:21:09.926Z,992.78
2016-11-21T07:22:09.910Z,992.83
2016-11-21T07:23:09.898Z,992.81
2016-11-21T07:24:09.884Z,992.83
2016-11-21T07:25:09.870Z,992.87
2016-11-21T07:26:09.859Z,992.83
2016-11-21T07:27:09.845Z,992.81
2016-11-21T07:28:09.831Z,992.8
2016-11-21T07:29:09.818Z,992.87
2016-11-21T07:30:09.804Z,992.85
2016-11-21T07:31:09.792Z,992.85
2016-11-21T07:32:09.779Z,992.86
2016-11-21T07:33:09.764Z,992.83
2016-11-21T07:34:09.750Z,992.8
2016-11-21T07:35:09.740Z,992.79
2016-11-21T07:36:09.726Z,992.78
2016-11-21T07:37:09.711Z,992.79
2016-11-21T07:38:09.696Z,992.79
2016-11-21T07:39:09.683Z,992.74
2016-11-21T07:40:09.669Z,992.77
2016-11-21T07:41:09.657Z,992.77
2016-11-21T07:42:09.844Z,992.81
2016-11-21T07:43:09.629Z,992.83
2016-11-21T07:44:09.617Z,992.87
2016-11-21T07:45:09.603Z,992.83
2016-11-21T07:46:09.589Z,992.88
2016-11-21T07:47:09.575Z,992.83
2016-11-21T07:48:09.561Z,992.86
2016-11-21T07:49:09.549Z,992.86
2016-11-21T07:50:09.537Z,992.81
2016-11-21T07:51:09.521Z,992.87
2016-11-21T07:52:09.512Z,992.81
2016-11-21T07:53:09.497Z,992.89
2016-11-21T07:54:09.484Z,992.89
2016-11-21T07:55:09.468Z,992.89
2016-11-21T07:56:09.457Z,992.92
2016-11-21T07:57:09.442Z,992.87
2016-11-21T07:58:09.430Z,992.93
2016-11-21T07:59:09.416Z,992.92
2016-11-21T08:00:09.404Z,992.94
2016-11-21T08:01:09.389Z,992.97
2016-11-21T08:02:09.376Z,993.01
2016-11-21T08:03:09.362Z,993
2016-11-21T08:04:09.350Z,993
2016-11-21T08:05:09.337Z,993.01
2016-11-21T08:06:09.324Z,993.01
2016-11-21T08:07:09.310Z,993.06
2016-11-21T08:08:09.299Z,993.05
2016-11-21T08:09:09.284Z,993.02
2016-11-21T08:10:09.274Z,993.03
2016-11-21T08:11:09.260Z,993.11
2016-11-21T08:12:09.246Z,993.06
2016-11-21T08:13:09.231Z,993.03
2016-11-21T08:14:09.219Z,993.11
2016-11-21T08:15:09.205Z,993.06
2016-11-21T08:16:09.192Z,993.07
2016-11-21T08:17:09.182Z,993.12
2016-11-21T08:18:09.167Z,993.12
2016-11-21T08:19:09.154Z,993.1
2016-11-21T08:20:09.142Z,993.14
2016-11-21T08:21:09.132Z,993.12
2016-11-21T08:22:09.114Z,993.13
2016-11-21T08:23:09.101Z,993.18
2016-11-21T08:24:09.088Z,993.12
2016-11-21T08:25:09.076Z,993.19
2016-11-21T08:26:09.062Z,993.13
2016-11-21T08:27:09.048Z,993.11
2016-11-21T08:28:09.037Z,993.17
2016-11-21T08:29:09.023Z,993.12
2016-11-21T08:30:09.010Z,993.14
2016-11-21T08:31:08.998Z,993.14
2016-11-21T08:32:08.984Z,993.16
2016-11-21T08:33:08.971Z,993.15
2016-11-21T08:34:08.958Z,993.14
2016-11-21T08:35:08.946Z,993.13
2016-11-21T08:36:08.935Z,993.12
2016-11-21T08:37:08.919Z,993.08
2016-11-21T08:38:08.905Z,993.07
2016-11-21T08:39:08.894Z,993.08
2016-11-21T08:40:08.880Z,993.14
2016-11-21T08:41:08.866Z,993.08
2016-11-21T08:42:08.856Z,993.15
2016-11-21T08:43:08.842Z,993.17
2016-11-21T08:44:08.828Z,993.16
2016-11-21T08:45:08.815Z,993.09
2016-11-21T08:46:08.803Z,993.11
2016-11-21T08:47:08.792Z,993.07
2016-11-21T08:48:08.775Z,993.11
2016-11-21T08:49:08.764Z,993.06
2016-11-21T08:50:08.751Z,993.04
2016-11-21T08:51:08.737Z,993.11
2016-11-21T08:52:08.723Z,993.11
2016-11-21T08:53:08.710Z,993.07
2016-11-21T08:54:08.698Z,993.07
2016-11-21T08:55:08.685Z,993.11
2016-11-21T08:56:08.674Z,993.1
2016-11-21T08:57:08.659Z,993.04
2016-11-21T08:58:08.645Z,993.08
2016-11-21T08:59:08.630Z,993.12
2016-11-21T09:00:08.618Z,993.03
2016-11-21T09:01:08.606Z,993.15
2016-11-21T09:02:08.592Z,993.11
2016-11-21T09:03:08.579Z,993.13
2016-11-21T09:04:08.567Z,993.13
2016-11-21T09:05:08.552Z,993.16
2016-11-21T09:06:08.539Z,993.15
2016-11-21T09:07:08.527Z,993.15
2016-11-21T09:08:08.514Z,993.18
2016-11-21T09:09:08.500Z,993.16
2016-11-21T09:10:08.486Z,993.24
2016-11-21T09:11:08.474Z,993.31
2016-11-21T09:12:08.462Z,993.27
2016-11-21T09:13:08.448Z,993.29
2016-11-21T09:14:08.435Z,993.29
2016-11-21T09:15:08.421Z,993.26
2016-11-21T09:16:08.407Z,993.34
2016-11-21T09:17:08.395Z,993.31
2016-11-21T09:18:08.381Z,993.37
2016-11-21T09:19:08.367Z,993.34
2016-11-21T09:20:08.354Z,993.4
2016-11-21T09:21:08.340Z,993.43
2016-11-21T09:22:08.327Z,993.4
2016-11-21T09:23:08.315Z,993.44
2016-11-21T09:24:08.300Z,993.48
2016-11-21T09:25:08.287Z,993.47
2016-11-21T09:26:08.277Z,993.5
2016-11-21T09:27:08.260Z,993.46
2016-11-21T09:28:08.246Z,993.6
2016-11-21T09:29:08.233Z,993.53
2016-11-21T09:30:08.221Z,993.49
2016-11-21T09:31:08.208Z,993.52
2016-11-21T09:32:08.192Z,993.53
2016-11-21T09:33:08.180Z,993.54
2016-11-21T09:34:08.170Z,993.43
2016-11-21T09:35:08.152Z,993.55
2016-11-21T09:36:08.139Z,993.55
2016-11-21T09:37:08.126Z,993.56
2016-11-21T09:38:08.111Z,993.57
2016-11-21T09:39:08.098Z,993.45
2016-11-21T09:40:08.085Z,993.53
2016-11-21T09:41:08.070Z,993.54
2016-11-21T09:42:08.263Z,993.53
2016-11-21T09:43:08.052Z,993.53
2016-11-21T09:44:08.031Z,993.6
2016-11-21T09:45:08.020Z,993.58
2016-11-21T09:46:08.004Z,993.67
2016-11-21T09:47:07.990Z,993.57
2016-11-21T09:48:07.978Z,993.59
2016-11-21T09:49:07.966Z,993.58
2016-11-21T09:50:07.949Z,993.58
2016-11-21T09:51:07.936Z,993.58
2016-11-21T09:52:07.923Z,993.64
2016-11-21T09:53:07.909Z,993.67
2016-11-21T09:54:07.895Z,993.73
2016-11-21T09:55:07.885Z,993.54
2016-11-21T09:56:07.869Z,993.63
2016-11-21T09:57:07.855Z,993.71
2016-11-21T09:58:07.841Z,993.58
2016-11-21T09:59:07.829Z,993.52
2016-11-21T10:00:07.815Z,993.68
2016-11-21T10:01:07.802Z,993.63
2016-11-21T10:02:07.787Z,993.67
2016-11-21T10:03:07.773Z,993.62
2016-11-21T10:04:07.758Z,993.58
2016-11-21T10:05:07.745Z,993.53
2016-11-21T10:06:07.731Z,993.62
2016-11-21T10:07:07.718Z,993.66
2016-11-21T10:08:07.702Z,993.59
2016-11-21T10:09:07.690Z,993.57
2016-11-21T10:10:07.676Z,993.62
2016-11-21T10:11:07.664Z,993.64
2016-11-21T10:12:07.648Z,993.63
2016-11-21T10:13:07.635Z,993.65
2016-11-21T10:14:07.619Z,993.59
2016-11-21T10:15:07.606Z,993.64
2016-11-21T10:16:07.592Z,993.68
2016-11-21T10:17:07.578Z,993.62
2016-11-21T10:18:07.565Z,993.62
2016-11-21T10:19:07.550Z,993.58
2016-11-21T10:20:07.535Z,993.59
2016-11-21T10:21:07.522Z,993.6
2016-11-21T10:22:07.508Z,993.61
2016-11-21T10:23:07.493Z,993.53
2016-11-21T10:24:07.483Z,993.49
2016-11-21T10:25:07.466Z,993.48
2016-11-21T10:26:07.451Z,993.49
2016-11-21T10:27:07.443Z,993.46
2016-11-21T10:28:07.423Z,993.41
2016-11-21T10:29:07.409Z,993.49
2016-11-21T10:30:07.395Z,993.41
2016-11-21T10:31:07.382Z,993.42
2016-11-21T10:32:07.368Z,993.44
2016-11-21T10:33:07.353Z,993.4
2016-11-21T10:34:07.338Z,993.39
2016-11-21T10:35:07.325Z,993.34
2016-11-21T10:36:07.310Z,993.35
2016-11-21T10:37:07.299Z,993.31
2016-11-21T10:38:07.282Z,993.28
2016-11-21T10:39:07.267Z,993.34
2016-11-21T10:40:07.257Z,993.33
2016-11-21T10:41:07.240Z,993.29
2016-11-21T10:42:07.227Z,993.29
2016-11-21T10:43:07.263Z,993.35
2016-11-21T10:44:07.199Z,993.32
2016-11-21T10:45:07.185Z,993.33
2016-11-21T10:46:07.169Z,993.28
2016-11-21T10:47:07.157Z,993.26
2016-11-21T10:48:07.142Z,993.31
2016-11-21T10:49:07.128Z,993.29
2016-11-21T10:50:07.115Z,993.28
2016-11-21T10:51:07.102Z,993.29
2016-11-21T10:52:07.088Z,993.26
2016-11-21T10:53:07.074Z,993.27
2016-11-21T10:54:07.060Z,993.29
2016-11-21T10:55:07.048Z,993.31
2016-11-21T10:56:07.032Z,993.24
2016-11-21T10:57:07.019Z,993.21
2016-11-21T10:58:07.004Z,993.29
2016-11-21T10:59:06.990Z,993.24
2016-11-21T11:00:06.977Z,993.21
2016-11-21T11:01:06.964Z,993.17
2016-11-21T11:02:06.949Z,993.14
2016-11-21T11:03:06.936Z,993.14
2016-11-21T11:04:06.923Z,993.09
2016-11-21T11:05:06.907Z,993.05
2016-11-21T11:06:06.899Z,993.06
2016-11-21T11:07:06.883Z,993.07
2016-11-21T11:08:06.870Z,993.04
2016-11-21T11:09:06.855Z,993.09
2016-11-21T11:10:06.839Z,993.03
2016-11-21T11:11:06.826Z,993.02
2016-11-21T11:12:06.812Z,992.97
2016-11-21T11:13:06.798Z,993
2016-11-21T11:14:06.784Z,993.03
2016-11-21T11:15:06.778Z,993.01
2016-11-21T11:16:06.765Z,992.92
2016-11-21T11:17:06.744Z,992.94
2016-11-21T11:18:06.731Z,992.94
2016-11-21T11:19:06.716Z,992.96
2016-11-21T11:20:06.705Z,992.9
2016-11-21T11:21:06.689Z,992.9
2016-11-21T11:22:06.686Z,992.93
2016-11-21T11:23:06.663Z,992.87
2016-11-21T11:24:06.648Z,992.87
2016-11-21T11:25:06.634Z,992.85
2016-11-21T11:26:06.622Z,992.77
2016-11-21T11:27:06.607Z,992.82
2016-11-21T11:28:06.595Z,992.8
2016-11-21T11:29:06.581Z,992.8
2016-11-21T11:30:06.568Z,992.86
2016-11-21T11:31:06.556Z,992.7
2016-11-21T11:32:06.540Z,992.69
2016-11-21T11:33:06.529Z,992.7
2016-11-21T11:34:06.516Z,992.64
2016-11-21T11:35:06.502Z,992.68
2016-11-21T11:36:06.488Z,992.69
2016-11-21T11:37:06.476Z,992.68
2016-11-21T11:38:06.466Z,992.7
2016-11-21T11:39:06.448Z,992.79
2016-11-21T11:40:06.435Z,992.75
2016-11-21T11:41:06.422Z,992.78
2016-11-21T11:42:06.411Z,992.72
2016-11-21T11:43:06.396Z,992.65
2016-11-21T11:44:06.434Z,992.68
2016-11-21T11:45:06.368Z,992.7
2016-11-21T11:46:06.357Z,992.7
2016-11-21T11:47:06.343Z,992.71
2016-11-21T11:48:06.333Z,992.7
2016-11-21T11:49:06.318Z,992.69
2016-11-21T11:50:06.302Z,992.69
2016-11-21T11:51:06.290Z,992.71
2016-11-21T11:52:06.278Z,992.75
2016-11-21T11:53:06.263Z,992.67
2016-11-21T11:54:06.301Z,992.61
2016-11-21T11:55:06.238Z,992.69
2016-11-21T11:56:06.225Z,992.63
2016-11-21T11:57:06.213Z,992.66
2016-11-21T11:58:06.200Z,992.69
2016-11-21T11:59:06.187Z,992.65
2016-11-21T12:00:06.176Z,992.71
2016-11-21T12:01:06.160Z,992.68
2016-11-21T12:02:06.147Z,992.62
2016-11-21T12:03:06.135Z,992.67
2016-11-21T12:04:06.271Z,992.7
2016-11-21T12:05:06.108Z,992.79
2016-11-21T12:06:06.095Z,992.71
2016-11-21T12:07:06.083Z,992.72
2016-11-21T12:08:06.070Z,992.74
2016-11-21T12:09:06.057Z,992.73
2016-11-21T12:10:06.044Z,992.81
2016-11-21T12:11:06.031Z,992.77
2016-11-21T12:12:06.017Z,992.69
2016-11-21T12:13:06.004Z,992.72
2016-11-21T12:14:05.993Z,992.64
2016-11-21T12:15:05.979Z,992.69
2016-11-21T12:16:05.967Z,992.66
2016-11-21T12:17:05.954Z,992.67
2016-11-21T12:18:05.940Z,992.69
2016-11-21T12:19:05.927Z,992.65
2016-11-21T12:20:05.919Z,992.66
2016-11-21T12:21:05.904Z,992.67
2016-11-21T12:22:05.888Z,992.58
2016-11-21T12:23:05.876Z,992.59
2016-11-21T12:24:05.863Z,992.57
2016-11-21T12:25:05.855Z,992.57
2016-11-21T12:26:05.838Z,992.57
2016-11-21T12:27:05.825Z,992.56
2016-11-21T12:28:05.813Z,992.63
2016-11-21T12:29:05.800Z,992.59
2016-11-21T12:30:05.788Z,992.5